< < Back
Terminal Aerodrome Forecast


Current Version              Previous Versions:   1  2  3  4  5  6  7  8  9  

Terminal Aerodrome Forecast

114
FTUS42 KGSP 231733
TAFGSP
TAF
KGSP 231733Z 2318/2418 19004KT P6SM VCTS SCT050CB
     FM232200 24005KT P6SM VCSH SCT050 BKN250
     FM240100 24004KT P6SM FEW060 SCT250
     FM240400 23003KT P6SM FEW250
     FM241500 22005KT P6SM FEW060=



Latest METAR

209
SAUS70 KWBC 232100 RRM
MTRGSP
METAR KGSP 232053Z 22013G22KT 10SM FEW075 29/21 A3000 RMK AO2 LTG DSNT
SW AND W SLP146 T02890211 53002


USA.gov is the U.S. government's official web portal to all federal, state and local government web resources and services.